Time;durP1;ratioP1;P1;durP2;ratioP2;P2;SDS_P1;SDS_P2;PMS_P1;PMS_P2;Temp;Humidity;BMP_temperature;BMP_pressure;BME280_temperature;BME280_humidity;BME280_pressure;Samples;Min_cycle;Max_cycle;Signal;HPM_P1;HPM_P2
2021/11/13 00:00:50;;;;;;;52.78;32.25;;;;;;;5.17;95.33;100867.98;1780277;80;21331;-76
2021/11/13 00:03:57;;;;;;;60.10;34.75;;;;;;;5.09;95.58;100875.92;1781634;80;21306;-76
2021/11/13 00:07:05;;;;;;;61.95;35.60;;;;;;;5.02;95.73;100874.69;1779922;80;21207;-77
2021/11/13 00:10:12;;;;;;;60.08;35.85;;;;;;;4.93;95.92;100871.37;1780980;80;21314;-77
2021/11/13 00:13:18;;;;;;;55.05;33.65;;;;;;;4.83;96.16;100873.48;1781496;80;21791;-76
2021/11/13 00:16:24;;;;;;;55.85;35.80;;;;;;;4.75;96.36;100870.57;1781409;79;21346;-77
2021/11/13 00:19:33;;;;;;;70.57;38.02;;;;;;;4.67;96.65;100878.95;1779968;80;21208;-76
2021/11/13 00:22:36;;;;;;;60.20;37.08;;;;;;;4.58;96.95;100878.70;1780882;80;21264;-76
2021/11/13 00:25:42;;;;;;;52.25;32.73;;;;;;;4.51;97.13;100876.59;1781415;80;21165;-77
2021/11/13 00:28:49;;;;;;;60.10;36.20;;;;;;;4.42;97.31;100877.34;1780101;80;21829;-77
2021/11/13 00:31:54;;;;;;;54.40;34.18;;;;;;;4.35;97.73;100879.19;1780643;80;21208;-77
2021/11/13 00:35:00;;;;;;;59.08;36.90;;;;;;;4.32;98.08;100882.13;1782822;80;21275;-76
2021/11/13 00:38:06;;;;;;;61.55;39.18;;;;;;;4.29;98.21;100881.05;1782064;80;21882;-76
2021/11/13 00:41:11;;;;;;;65.37;37.67;;;;;;;4.26;98.23;100877.71;1780393;80;21217;-76
2021/11/13 00:44:16;;;;;;;68.62;38.92;;;;;;;4.21;98.09;100875.86;1781394;80;21302;-77
2021/11/13 00:47:23;;;;;;;67.05;39.23;;;;;;;4.16;98.23;100875.37;1781261;80;21347;-77
2021/11/13 00:50:28;;;;;;;69.50;39.83;;;;;;;4.12;98.52;100876.59;1781527;80;21307;-76
2021/11/13 00:53:33;;;;;;;68.12;39.25;;;;;;;4.10;98.86;100872.66;1779112;80;21208;-77
2021/11/13 00:56:38;;;;;;;65.22;41.30;;;;;;;4.08;99.14;100871.90;1781741;80;21350;-76
2021/11/13 00:59:45;;;;;;;70.67;41.48;;;;;;;4.06;99.33;100877.45;1780184;80;21264;-76
2021/11/13 01:02:52;;;;;;;73.33;40.20;;;;;;;4.06;99.47;100877.45;1781716;80;21363;-76
2021/11/13 01:05:57;;;;;;;69.67;41.13;;;;;;;4.05;99.60;100885.70;1780321;80;22028;-76
2021/11/13 01:09:03;;;;;;;63.10;39.95;;;;;;;4.03;99.79;100887.64;1781097;80;21786;-76
2021/11/13 01:12:11;;;;;;;74.58;42.33;;;;;;;4.02;99.97;100885.92;1780251;80;21201;-76
2021/11/13 01:15:17;;;;;;;65.62;38.67;;;;;;;4.04;100.00;100890.72;1780098;80;21822;-77
2021/11/13 01:18:22;;;;;;;75.30;42.38;;;;;;;4.04;100.00;100894.77;1781727;80;21878;-76
2021/11/13 01:21:28;;;;;;;68.85;40.90;;;;;;;4.04;100.00;100897.48;1780498;80;21334;-76
2021/11/13 01:24:34;;;;;;;67.03;40.80;;;;;;;4.04;100.00;100901.55;1781250;80;21149;-76
2021/11/13 01:27:41;;;;;;;77.08;42.78;;;;;;;4.06;100.00;100899.59;1780166;80;21244;-76
2021/11/13 01:30:46;;;;;;;75.20;41.15;;;;;;;4.09;100.00;100900.23;1781451;80;21216;-76
2021/11/13 01:33:56;;;;;;;66.30;41.80;;;;;;;4.10;100.00;100901.09;1781855;80;21185;-75
2021/11/13 01:37:00;;;;;;;66.12;40.95;;;;;;;4.14;100.00;100894.91;1781687;80;21514;-76
2021/11/13 01:40:05;;;;;;;63.08;39.15;;;;;;;4.16;100.00;100896.53;1781489;80;21295;-75
2021/11/13 01:43:11;;;;;;;67.17;38.42;;;;;;;4.18;100.00;100899.97;1781520;80;21226;-76
2021/11/13 01:46:17;;;;;;;68.17;40.80;;;;;;;4.20;100.00;100903.44;1779974;80;21307;-75
2021/11/13 01:49:24;;;;;;;70.57;42.67;;;;;;;4.20;100.00;100898.52;1782097;80;21299;-76
2021/11/13 01:52:29;;;;;;;67.12;41.55;;;;;;;4.23;100.00;100905.88;1780115;80;21223;-76
2021/11/13 01:55:37;;;;;;;71.82;41.58;;;;;;;4.24;100.00;100913.55;1775966;80;21878;-76
2021/11/13 01:58:43;;;;;;;71.07;41.23;;;;;;;4.26;100.00;100907.00;1770343;81;21181;-75
2021/11/13 02:01:50;;;;;;;65.65;40.03;;;;;;;4.28;100.00;100906.41;1770590;81;21272;-76
2021/11/13 02:04:55;;;;;;;66.37;41.48;;;;;;;4.30;100.00;100905.78;1733920;81;21931;-76
2021/11/13 02:08:00;;;;;;;66.07;42.10;;;;;;;4.36;100.00;100900.36;1771332;81;21299;-76
2021/11/13 02:11:06;;;;;;;71.15;39.85;;;;;;;4.39;100.00;100907.40;1771453;81;21550;-75
2021/11/13 02:14:12;;;;;;;75.70;42.58;;;;;;;4.43;100.00;100907.53;1771495;81;22734;-75
2021/11/13 02:17:19;;;;;;;70.12;40.85;;;;;;;4.41;100.00;100910.83;1771388;81;21181;-75
2021/11/13 02:20:31;;;;;;;75.47;44.18;;;;;;;4.41;100.00;100913.55;1771584;81;21252;-76
2021/11/13 02:23:36;;;;;;;76.95;41.48;;;;;;;4.42;100.00;100918.83;1770094;81;21314;-76
2021/11/13 02:26:42;;;;;;;73.78;42.40;;;;;;;4.43;100.00;100918.36;1771754;81;21335;-76
2021/11/13 02:29:48;;;;;;;68.45;41.33;;;;;;;4.42;99.91;100917.97;1772934;81;21256;-75
2021/11/13 02:32:54;;;;;;;70.72;41.02;;;;;;;4.39;99.61;100919.59;1770715;81;21371;-76
2021/11/13 02:36:00;;;;;;;64.35;39.05;;;;;;;4.33;99.47;100916.38;1771975;81;21528;-75
2021/11/13 02:39:05;;;;;;;63.23;38.80;;;;;;;4.29;99.46;100927.58;1780208;79;21533;-76
2021/11/13 02:42:12;;;;;;;64.05;39.83;;;;;;;4.22;99.43;100929.89;1802039;79;21221;-75
2021/11/13 02:45:18;;;;;;;63.28;38.25;;;;;;;4.16;99.45;100931.73;1802296;79;21899;-76
2021/11/13 02:48:23;;;;;;;61.88;37.85;;;;;;;4.11;99.57;100929.88;1774796;79;21311;-76
2021/11/13 02:51:28;;;;;;;62.05;37.13;;;;;;;4.05;99.68;100931.72;1770163;81;21331;-76
2021/11/13 02:54:35;;;;;;;64.05;38.90;;;;;;;4.00;99.83;100937.95;1785310;79;21738;-76
2021/11/13 02:57:41;;;;;;;62.50;39.35;;;;;;;3.97;100.00;100936.86;1803573;79;21280;-75
2021/11/13 03:00:46;;;;;;;65.92;38.63;;;;;;;3.92;100.00;100944.47;1805199;79;21195;-75
2021/11/13 03:03:57;;;;;;;57.98;36.98;;;;;;;3.87;100.00;100944.83;1772670;81;21846;-75
2021/11/13 03:07:03;;;;;;;63.20;35.88;;;;;;;3.83;100.00;100944.69;1771735;81;21307;-76
2021/11/13 03:10:08;;;;;;;64.30;37.45;;;;;;;3.77;100.00;100943.81;1770870;81;21391;-75
2021/11/13 03:13:15;;;;;;;55.95;33.42;;;;;;;3.73;100.00;100950.43;1770240;81;21834;-76
2021/11/13 03:16:24;;;;;;;69.35;39.95;;;;;;;3.70;100.00;100947.45;1771894;81;21172;-75
2021/11/13 03:19:30;;;;;;;65.67;37.33;;;;;;;3.65;100.00;100948.30;1771468;81;21161;-75
2021/11/13 03:22:37;;;;;;;63.38;36.83;;;;;;;3.59;100.00;100942.87;1771242;81;21339;-75
2021/11/13 03:25:44;;;;;;;59.98;36.23;;;;;;;3.56;100.00;100946.28;1770870;81;21323;-75
2021/11/13 03:28:53;;;;;;;67.60;39.63;;;;;;;3.52;100.00;100952.91;1772435;81;21189;-76
2021/11/13 03:31:59;;;;;;;63.25;38.50;;;;;;;3.48;100.00;100956.81;1771167;81;21363;-75
2021/11/13 03:35:05;;;;;;;57.40;37.15;;;;;;;3.43;100.00;100963.91;1771921;81;21299;-76
2021/11/13 03:38:16;;;;;;;57.33;36.10;;;;;;;3.38;100.00;100970.66;1770171;81;21240;-75
2021/11/13 03:41:21;;;;;;;52.67;35.98;;;;;;;3.30;100.00;100984.27;1771930;81;21220;-76
2021/11/13 03:44:25;;;;;;;64.90;36.95;;;;;;;3.30;100.00;100984.27;1771728;81;21315;-75
2021/11/13 03:47:31;;;;;;;55.10;35.17;;;;;;;3.28;100.00;100975.87;1771615;81;21315;-75
2021/11/13 03:50:37;;;;;;;61.18;33.40;;;;;;;3.26;100.00;100981.91;1771423;81;21314;-75
2021/11/13 03:53:42;;;;;;;53.70;34.00;;;;;;;3.25;100.00;100993.70;1770574;81;21193;-75
2021/11/13 03:56:48;;;;;;;60.52;36.70;;;;;;;3.22;100.00;100992.07;1771209;80;21622;-76
2021/11/13 03:59:55;;;;;;;59.13;34.63;;;;;;;3.24;100.00;100999.56;1779832;80;21358;-76
2021/11/13 04:03:01;;;;;;;51.02;32.48;;;;;;;3.21;100.00;101003.87;1781072;80;21743;-76
2021/11/13 04:06:07;;;;;;;54.15;33.15;;;;;;;3.18;100.00;101001.38;1781662;80;21307;-76
2021/11/13 04:09:13;;;;;;;48.05;30.77;;;;;;;3.12;100.00;101000.48;1781620;80;21192;-75
2021/11/13 04:12:19;;;;;;;63.17;36.20;;;;;;;3.08;100.00;100999.84;1781513;80;21180;-75
2021/11/13 04:15:24;;;;;;;57.60;34.05;;;;;;;3.03;100.00;101004.72;1780077;80;21255;-75
2021/11/13 04:18:31;;;;;;;61.55;34.55;;;;;;;2.99;100.00;101008.61;1781371;80;21188;-75
2021/11/13 04:21:36;;;;;;;62.38;35.55;;;;;;;2.94;100.00;101009.43;1781463;80;21295;-75
2021/11/13 04:24:41;;;;;;;56.23;34.03;;;;;;;2.90;100.00;101011.11;1780402;80;21386;-75
2021/11/13 04:27:47;;;;;;;58.90;36.50;;;;;;;2.87;100.00;101011.31;1781638;80;21834;-76
2021/11/13 04:30:53;;;;;;;55.60;34.65;;;;;;;2.86;100.00;101004.20;1781483;80;21916;-76
2021/11/13 04:34:01;;;;;;;58.40;34.65;;;;;;;2.84;100.00;101011.56;1780966;80;21299;-76
2021/11/13 04:37:14;;;;;;;58.65;34.80;;;;;;;2.80;100.00;101011.77;1781787;80;21595;-76
2021/11/13 04:40:16;;;;;;;53.95;33.60;;;;;;;2.78;100.00;101023.19;1781704;80;21415;-75
2021/11/13 04:43:21;;;;;;;56.18;33.25;;;;;;;2.78;100.00;101024.54;1781512;80;21402;-76
2021/11/13 04:46:27;;;;;;;69.07;36.98;;;;;;;2.77;100.00;101030.89;1781477;80;21747;-75
2021/11/13 04:49:33;;;;;;;58.70;34.70;;;;;;;2.75;100.00;101034.20;1781690;80;21357;-76
2021/11/13 04:52:39;;;;;;;57.55;35.83;;;;;;;2.72;100.00;101031.70;1781477;80;21228;-76
2021/11/13 04:55:44;;;;;;;59.38;34.13;;;;;;;2.70;100.00;101036.36;1781606;80;21180;-76
2021/11/13 04:58:50;;;;;;;56.77;33.05;;;;;;;2.70;100.00;101046.31;1776252;80;21335;-76
2021/11/13 05:01:55;;;;;;;58.60;33.00;;;;;;;2.68;100.00;101049.12;1771867;81;21965;-76
2021/11/13 05:05:01;;;;;;;62.03;34.35;;;;;;;2.68;100.00;101047.78;1770639;81;21898;-76
2021/11/13 05:08:07;;;;;;;59.03;34.92;;;;;;;2.69;100.00;101054.04;1771886;81;21320;-76
2021/11/13 05:11:14;;;;;;;53.90;33.85;;;;;;;2.69;100.00;101052.69;1771375;81;21335;-76
2021/11/13 05:14:19;;;;;;;58.30;33.88;;;;;;;2.70;100.00;101066.08;1771280;81;21193;-75
2021/11/13 05:17:26;;;;;;;62.95;34.67;;;;;;;2.69;100.00;101058.95;1770160;81;21198;-75
2021/11/13 05:20:34;;;;;;;61.30;35.40;;;;;;;2.72;100.00;101064.61;1771366;81;21181;-75
2021/11/13 05:23:41;;;;;;;58.68;33.23;;;;;;;2.72;100.00;101074.92;1769957;81;21296;-75
2021/11/13 05:26:46;;;;;;;56.65;34.08;;;;;;;2.70;100.00;101077.37;1770452;81;21327;-75
2021/11/13 05:29:51;;;;;;;56.18;34.05;;;;;;;2.70;100.00;101077.37;1770334;81;21189;-76
2021/11/13 05:32:59;;;;;;;55.00;32.35;;;;;;;2.75;100.00;101078.78;1770167;81;21248;-76
2021/11/13 05:36:04;;;;;;;49.58;31.70;;;;;;;2.80;100.00;101087.42;1771871;81;21699;-75
2021/11/13 05:39:10;;;;;;;57.20;33.30;;;;;;;2.86;100.00;101094.23;1771605;81;22289;-76
2021/11/13 05:42:18;;;;;;;51.33;31.95;;;;;;;2.91;100.00;101095.25;1771213;81;21649;-76
2021/11/13 05:45:24;;;;;;;54.33;31.20;;;;;;;2.95;100.00;101092.23;1770541;81;21349;-76
2021/11/13 05:48:30;;;;;;;51.88;30.72;;;;;;;3.00;100.00;101094.61;1771782;81;21879;-75
2021/11/13 05:51:36;;;;;;;52.65;31.77;;;;;;;3.06;100.00;101095.55;1771538;81;21346;-75
2021/11/13 05:54:42;;;;;;;56.55;32.05;;;;;;;3.10;100.00;101098.37;1770203;81;21315;-75
2021/11/13 05:57:48;;;;;;;59.03;33.53;;;;;;;3.15;100.00;101107.02;1804932;79;21315;-76
2021/11/13 06:00:54;;;;;;;53.80;32.28;;;;;;;3.21;100.00;101105.26;1802873;79;21328;-75
2021/11/13 06:04:02;;;;;;;50.10;29.48;;;;;;;3.27;100.00;101110.70;1770759;81;21620;-75
2021/11/13 06:07:08;;;;;;;49.73;30.75;;;;;;;3.32;100.00;101112.59;1770094;81;21614;-75
2021/11/13 06:10:13;;;;;;;47.65;28.92;;;;;;;3.38;100.00;101112.14;1770722;81;21351;-76
2021/11/13 06:13:21;;;;;;;50.08;28.83;;;;;;;3.43;100.00;101115.37;1803428;79;21215;-76
2021/11/13 06:16:28;;;;;;;46.90;28.35;;;;;;;3.49;100.00;101108.19;1801791;79;21343;-76
2021/11/13 06:19:34;;;;;;;50.35;28.87;;;;;;;3.56;100.00;101107.23;1771719;81;21245;-76
2021/11/13 06:22:39;;;;;;;54.25;29.50;;;;;;;3.65;100.00;101126.86;1771546;81;21304;-76
2021/11/13 06:25:46;;;;;;;44.77;28.17;;;;;;;3.74;100.00;101123.48;1770988;81;21343;-76
2021/11/13 06:28:51;;;;;;;42.30;26.95;;;;;;;3.82;100.00;101126.50;1770636;81;21347;-76
2021/11/13 06:31:58;;;;;;;47.53;27.82;;;;;;;3.91;100.00;101125.45;1770741;81;21330;-77
2021/11/13 06:35:04;;;;;;;48.33;27.93;;;;;;;3.97;100.00;101134.46;1771804;81;21833;-77
2021/11/13 06:38:12;;;;;;;46.70;25.37;;;;;;;4.03;100.00;101133.50;1770438;81;21240;-76
2021/11/13 06:41:18;;;;;;;43.65;25.35;;;;;;;4.12;100.00;101131.95;1771679;81;21573;-77
2021/11/13 06:44:23;;;;;;;41.08;24.63;;;;;;;4.22;99.78;101134.34;1772564;81;21323;-76
2021/11/13 06:47:28;;;;;;;46.65;28.87;;;;;;;4.31;99.13;101143.13;1772460;81;21318;-76
2021/11/13 06:50:33;;;;;;;47.13;28.38;;;;;;;4.40;98.75;101146.99;1771603;81;21704;-76
2021/11/13 06:53:39;;;;;;;40.67;24.23;;;;;;;4.47;98.64;101142.85;1771529;81;21300;-77
2021/11/13 06:56:45;;;;;;;47.48;24.75;;;;;;;4.54;98.56;101151.36;1770656;81;21894;-77
2021/11/13 06:59:50;;;;;;;49.65;26.73;;;;;;;4.61;97.64;101150.79;1770643;80;21216;-76
2021/11/13 07:02:59;;;;;;;47.45;26.37;;;;;;;4.68;96.38;101149.81;1722714;83;21323;-76
2021/11/13 07:06:05;;;;;;;43.98;24.92;;;;;;;4.74;95.22;101147.98;1714697;83;21392;-76
2021/11/13 07:09:10;;;;;;;49.35;26.33;;;;;;;4.82;94.17;101147.39;1718165;83;21240;-76
2021/11/13 07:12:16;;;;;;;46.60;24.43;;;;;;;4.89;93.55;101139.14;1713784;83;21334;-75
2021/11/13 07:15:24;;;;;;;40.80;23.85;;;;;;;4.95;93.29;101139.18;1718244;83;21188;-75
2021/11/13 07:18:30;;;;;;;39.98;23.50;;;;;;;5.02;92.72;101141.77;1750443;82;21310;-76
2021/11/13 07:21:36;;;;;;;40.70;22.40;;;;;;;5.10;91.64;101140.67;1750901;82;21905;-75
2021/11/13 07:24:42;;;;;;;39.33;23.62;;;;;;;5.16;90.88;101144.25;1750774;82;21303;-76
2021/11/13 07:27:48;;;;;;;41.37;24.18;;;;;;;5.23;90.33;101146.87;1750866;82;21298;-76
2021/11/13 07:30:54;;;;;;;49.08;26.35;;;;;;;5.31;90.03;101140.31;1752009;82;21779;-76
2021/11/13 07:33:59;;;;;;;41.95;25.75;;;;;;;5.39;89.30;101143.78;1751852;82;22489;-75
2021/11/13 07:37:05;;;;;;;43.70;25.32;;;;;;;5.48;88.00;101151.69;1750046;82;21322;-76
2021/11/13 07:40:12;;;;;;;43.17;25.43;;;;;;;5.56;87.08;101154.16;1751015;82;21905;-76
2021/11/13 07:43:18;;;;;;;45.43;25.20;;;;;;;5.62;86.65;101151.44;1751100;82;21196;-76
2021/11/13 07:46:25;;;;;;;43.95;25.00;;;;;;;5.71;86.13;101149.34;1750754;82;21907;-77
2021/11/13 07:49:32;;;;;;;43.90;24.75;;;;;;;5.77;85.66;101161.05;1750793;82;21207;-77
2021/11/13 07:52:37;;;;;;;47.53;26.97;;;;;;;5.83;84.97;101163.28;1750783;82;21303;-77
2021/11/13 07:55:42;;;;;;;46.90;26.55;;;;;;;5.90;84.96;101168.56;1750753;82;21862;-77
2021/11/13 07:58:48;;;;;;;46.42;25.90;;;;;;;5.98;84.65;101168.48;1750801;82;21235;-76
2021/11/13 08:01:54;;;;;;;52.25;27.58;;;;;;;6.02;84.22;101175.36;1761579;79;21325;-77
2021/11/13 08:04:59;;;;;;;49.73;28.52;;;;;;;6.06;83.57;101173.63;1775946;80;21667;-76
2021/11/13 08:08:05;;;;;;;47.60;24.40;;;;;;;6.12;83.65;101175.00;1774308;80;21349;-75
2021/11/13 08:11:12;;;;;;;46.90;25.92;;;;;;;6.17;83.59;101175.48;1774043;80;21300;-75
2021/11/13 08:14:19;;;;;;;49.23;27.45;;;;;;;6.23;83.47;101179.53;1775396;80;21876;-76
2021/11/13 08:17:26;;;;;;;56.05;26.90;;;;;;;6.27;82.60;101177.80;1778690;79;21235;-75
2021/11/13 08:20:32;;;;;;;48.48;25.62;;;;;;;6.30;82.38;101176.66;1786956;80;21528;-75
2021/11/13 08:23:38;;;;;;;45.88;26.15;;;;;;;6.32;82.25;101176.91;1785801;80;21621;-76
2021/11/13 08:26:43;;;;;;;54.77;29.27;;;;;;;6.34;82.40;101177.63;1785561;80;21868;-76
2021/11/13 08:29:51;;;;;;;54.80;29.87;;;;;;;6.39;82.34;101174.03;1786051;80;21191;-76
2021/11/13 08:32:57;;;;;;;50.60;29.07;;;;;;;6.45;82.28;101171.83;1784662;80;21358;-76
2021/11/13 08:36:02;;;;;;;54.30;29.85;;;;;;;6.50;81.99;101162.28;1787248;80;21279;-75
2021/11/13 08:39:07;;;;;;;50.03;28.02;;;;;;;6.55;81.85;101174.12;1785962;80;21904;-75
2021/11/13 08:42:16;;;;;;;44.77;23.52;;;;;;;6.60;82.00;101178.18;1786027;80;21301;-75
2021/11/13 08:45:21;;;;;;;43.20;25.10;;;;;;;6.65;81.15;101176.43;1785742;80;21215;-75
2021/11/13 08:48:27;;;;;;;53.25;26.75;;;;;;;6.68;80.90;101176.19;1784689;80;21203;-76
2021/11/13 08:51:33;;;;;;;49.33;26.62;;;;;;;6.70;80.57;101183.70;1786027;80;21294;-75
2021/11/13 08:54:39;;;;;;;41.85;24.45;;;;;;;6.72;80.35;101185.77;1786080;80;21297;-75
2021/11/13 08:57:45;;;;;;;55.80;27.42;;;;;;;6.73;80.31;101178.48;1785408;80;21818;-75
2021/11/13 09:00:57;;;;;;;50.83;27.85;;;;;;;6.73;80.19;101178.01;1785488;80;21215;-75
2021/11/13 09:04:04;;;;;;;47.30;25.70;;;;;;;6.76;80.09;101173.66;1724123;83;21337;-75
2021/11/13 09:07:13;;;;;;;55.60;25.70;;;;;;;6.78;80.51;101179.84;1755227;81;21274;-75
2021/11/13 09:10:18;;;;;;;68.12;30.08;;;;;;;6.83;80.32;101180.81;1755302;81;21302;-75
2021/11/13 09:13:22;;;;;;;48.75;26.93;;;;;;;6.85;80.09;101171.51;1765651;80;21652;-76
2021/11/13 09:16:29;;;;;;;48.17;25.75;;;;;;;6.88;79.96;101166.31;1755003;81;21834;-75
2021/11/13 09:19:35;;;;;;;47.48;25.40;;;;;;;6.92;79.65;101160.98;1745220;82;21542;-76
2021/11/13 09:22:42;;;;;;;49.33;25.77;;;;;;;6.97;79.29;101168.25;1743016;82;21839;-75
2021/11/13 09:25:49;;;;;;;45.67;26.15;;;;;;;7.02;79.42;101167.85;1744281;82;21286;-75
2021/11/13 09:28:56;;;;;;;50.03;27.58;;;;;;;7.05;79.13;101171.64;1791452;79;21275;-76
2021/11/13 09:32:02;;;;;;;47.70;26.15;;;;;;;7.08;78.83;101161.87;1795618;79;21150;-76
2021/11/13 09:35:06;;;;;;;51.77;25.55;;;;;;;7.14;78.35;101165.41;1750885;82;21299;-76
2021/11/13 09:38:12;;;;;;;45.52;23.65;;;;;;;7.19;77.85;101161.78;1749855;82;21245;-76
2021/11/13 09:41:21;;;;;;;44.83;24.52;;;;;;;7.21;77.39;101158.95;1750708;82;21367;-76
2021/11/13 09:44:27;;;;;;;52.30;25.60;;;;;;;7.23;77.18;101159.66;1750353;82;21804;-76
2021/11/13 09:47:34;;;;;;;64.03;28.27;;;;;;;7.24;77.21;101160.88;1764365;80;21885;-76
2021/11/13 09:50:46;;;;;;;50.35;25.70;;;;;;;7.28;77.19;101160.13;1781279;80;21239;-77
2021/11/13 09:53:50;;;;;;;45.88;25.68;;;;;;;7.29;77.18;101158.65;1781472;80;21288;-77
2021/11/13 09:56:56;;;;;;;48.10;27.30;;;;;;;7.32;77.06;101160.22;1781211;80;21837;-76
2021/11/13 10:00:03;;;;;;;45.83;24.45;;;;;;;7.35;76.75;101164.05;1781187;80;21333;-75
2021/11/13 10:03:12;;;;;;;50.90;24.45;;;;;;;7.38;76.72;101165.12;1781100;80;21279;-76
2021/11/13 10:06:19;;;;;;;44.80;24.00;;;;;;;7.42;76.96;101167.44;1780942;80;21313;-76
2021/11/13 10:09:25;;;;;;;44.40;25.88;;;;;;;7.47;76.89;101164.30;1780296;80;21781;-76
2021/11/13 10:12:48;;;;;;;40.28;21.55;;;;;;;7.52;76.77;101159.81;1781197;80;21155;-75
2021/11/13 10:15:57;;;;;;;46.60;24.10;;;;;;;7.56;76.70;101164.00;1780913;80;21314;-76
2021/11/13 10:19:03;;;;;;;36.23;18.73;;;;;;;7.58;76.02;101159.30;1743203;80;21167;-75
2021/11/13 10:22:09;;;;;;;45.65;23.57;;;;;;;7.58;75.46;101169.69;1779428;80;21797;-75
2021/11/13 10:25:20;;;;;;;41.02;22.50;;;;;;;7.62;75.08;101167.53;1781008;80;21297;-76
2021/11/13 10:28:26;;;;;;;42.30;23.27;;;;;;;7.64;75.12;101164.19;1780580;80;21325;-76
2021/11/13 10:31:42;;;;;;;33.18;19.95;;;;;;;7.68;75.23;101157.47;1780263;80;21884;-76
2021/11/13 10:34:55;;;;;;;36.98;20.05;;;;;;;7.72;75.31;101168.45;1780945;80;21302;-75
2021/11/13 10:38:01;;;;;;;37.60;20.02;;;;;;;7.78;74.96;101167.04;1780815;80;21330;-76
2021/11/13 10:41:14;;;;;;;41.73;20.68;;;;;;;7.82;74.26;101163.91;1780826;80;21155;-75
2021/11/13 10:44:21;;;;;;;48.70;24.57;;;;;;;7.83;74.14;101164.26;1780865;80;21297;-75
2021/11/13 10:47:37;;;;;;;38.00;19.70;;;;;;;7.85;74.45;101160.88;1780165;80;21223;-75
2021/11/13 10:50:42;;;;;;;37.17;20.08;;;;;;;7.87;74.40;101156.18;1781603;80;21187;-75
2021/11/13 10:53:48;;;;;;;41.40;18.48;;;;;;;7.92;73.35;101161.21;1731253;80;21294;-76
2021/11/13 10:56:56;;;;;;;30.97;17.30;;;;;;;7.95;72.90;101160.91;1781188;80;21730;-75
2021/11/13 11:00:01;;;;;;;34.15;18.65;;;;;;;7.99;72.27;101166.95;1781839;80;21294;-75
2021/11/13 11:03:13;;;;;;;34.60;18.67;;;;;;;8.00;72.56;101164.59;1753120;80;21396;-75
2021/11/13 11:06:17;;;;;;;33.58;20.72;;;;;;;7.99;71.55;101165.59;1735394;80;21224;-75
2021/11/13 11:09:28;;;;;;;36.25;20.10;;;;;;;7.99;71.87;101162.36;1708972;84;21593;-77
2021/11/13 11:12:39;;;;;;;25.20;15.05;;;;;;;8.01;72.55;101160.88;1718286;83;21306;-76
2021/11/13 11:15:49;;;;;;;23.15;14.43;;;;;;;8.04;72.14;101163.31;1718557;83;21299;-76
2021/11/13 11:19:10;;;;;;;31.02;17.50;;;;;;;8.07;71.06;101160.32;1722611;83;21230;-76
2021/11/13 11:22:17;;;;;;;31.30;17.45;;;;;;;8.04;70.62;101155.99;1723537;83;21314;-75
2021/11/13 11:25:26;;;;;;;32.55;18.07;;;;;;;8.06;70.57;101165.41;1724113;83;21195;-76
2021/11/13 11:28:30;;;;;;;27.30;16.90;;;;;;;8.05;70.55;101160.47;1723686;83;21738;-76
2021/11/13 11:31:50;;;;;;;29.02;16.48;;;;;;;8.05;70.40;101163.70;1724597;80;21943;-77
2021/11/13 11:34:57;;;;;;;36.38;19.57;;;;;;;8.09;70.73;101163.75;1735091;82;21782;-77
2021/11/13 11:38:06;;;;;;;27.85;16.52;;;;;;;8.11;71.03;101163.13;1736562;82;21357;-77
2021/11/13 11:41:12;;;;;;;35.80;19.10;;;;;;;8.14;70.74;101161.50;1736866;82;21326;-76
2021/11/13 11:44:19;;;;;;;32.17;18.62;;;;;;;8.14;70.81;101166.45;1735072;82;21187;-76
2021/11/13 11:47:26;;;;;;;30.95;17.85;;;;;;;8.15;70.80;101168.16;1734926;82;21295;-77
2021/11/13 11:50:38;;;;;;;34.78;18.02;;;;;;;8.15;70.85;101164.58;1737684;82;21294;-77
2021/11/13 11:53:43;;;;;;;30.77;17.70;;;;;;;8.14;70.95;101160.14;1737371;82;21245;-76
2021/11/13 11:56:49;;;;;;;34.27;18.07;;;;;;;8.13;71.05;101157.88;1736572;82;21303;-77
2021/11/13 11:59:55;;;;;;;30.02;17.32;;;;;;;8.14;70.98;101158.77;1736488;82;21302;-77
2021/11/13 12:03:05;;;;;;;28.98;15.93;;;;;;;8.12;70.76;101151.22;1736549;82;21330;-77
2021/11/13 12:06:12;;;;;;;36.68;18.70;;;;;;;8.14;70.62;101157.41;1735689;82;21334;-76
2021/11/13 12:09:18;;;;;;;32.73;17.73;;;;;;;8.15;70.16;101157.77;1733584;82;21354;-77
2021/11/13 12:12:26;;;;;;;29.37;16.42;;;;;;;8.15;69.95;101153.68;1733957;82;21550;-76
2021/11/13 12:15:33;;;;;;;26.77;14.55;;;;;;;8.12;69.79;101151.22;1732354;82;21758;-76
2021/11/13 12:18:42;;;;;;;29.55;16.80;;;;;;;8.10;69.79;101146.42;1731989;82;21219;-77
2021/11/13 12:22:02;;;;;;;43.23;17.73;;;;;;;8.09;70.00;101141.95;1732208;82;21204;-76
2021/11/13 12:25:26;;;;;;;32.23;17.02;;;;;;;8.10;70.07;101143.20;1733836;82;21302;-77
2021/11/13 12:28:34;;;;;;;27.22;15.55;;;;;;;8.11;69.97;101138.61;1709240;82;21795;-76
2021/11/13 12:31:54;;;;;;;32.30;16.02;;;;;;;8.11;70.08;101139.97;1722245;80;21390;-77
2021/11/13 12:35:01;;;;;;;27.85;16.15;;;;;;;8.13;70.05;101147.48;1748308;82;21350;-77
2021/11/13 12:38:27;;;;;;;27.80;16.40;;;;;;;8.11;69.96;101150.36;1749328;82;21315;-76
2021/11/13 12:41:49;;;;;;;28.23;16.45;;;;;;;8.13;69.72;101143.40;1748268;82;21311;-77
2021/11/13 12:44:55;;;;;;;26.97;15.03;;;;;;;8.14;69.89;101152.82;1740889;82;21663;-75
2021/11/13 12:48:03;;;;;;;31.33;16.32;;;;;;;8.14;70.00;101149.23;1729226;82;21672;-76
2021/11/13 12:51:08;;;;;;;27.82;14.30;;;;;;;8.13;69.92;101151.07;1732939;82;21330;-77
2021/11/13 12:54:24;;;;;;;23.15;14.50;;;;;;;8.12;69.98;101151.22;1714607;82;21302;-77
2021/11/13 12:57:43;;;;;;;26.37;12.98;;;;;;;8.08;70.08;101149.27;1733632;82;21775;-77
2021/11/13 13:00:59;;;;;;;26.82;14.00;;;;;;;8.08;70.15;101156.59;1733470;82;21216;-76
2021/11/13 13:04:08;;;;;;;23.77;13.40;;;;;;;8.04;69.87;101153.27;1734163;82;21337;-76
2021/11/13 13:07:14;;;;;;;21.87;14.37;;;;;;;8.01;69.77;101156.30;1732532;82;21326;-76
2021/11/13 13:10:20;;;;;;;26.68;14.75;;;;;;;7.97;69.65;101154.84;1733946;82;21298;-76
2021/11/13 13:13:26;;;;;;;24.75;15.18;;;;;;;7.94;69.58;101153.24;1733937;82;21377;-76
2021/11/13 13:16:36;;;;;;;21.48;13.25;;;;;;;7.92;69.53;101159.34;1734101;80;21908;-76
2021/11/13 13:19:45;;;;;;;24.95;14.30;;;;;;;7.88;69.50;101157.04;1733374;82;21212;-76
2021/11/13 13:22:51;;;;;;;30.12;14.13;;;;;;;7.83;69.57;101154.73;1732279;82;21279;-75
2021/11/13 13:26:02;;;;;;;27.87;15.55;;;;;;;7.79;69.93;101156.50;1732211;82;21314;-75
2021/11/13 13:29:09;;;;;;;30.68;14.78;;;;;;;7.75;70.45;101153.19;1733724;82;21747;-76
2021/11/13 13:32:17;;;;;;;28.80;15.40;;;;;;;7.74;70.59;101156.05;1709022;83;21198;-76
2021/11/13 13:35:22;;;;;;;23.85;14.53;;;;;;;7.72;70.62;101154.84;1720436;83;21328;-76
2021/11/13 13:38:30;;;;;;;30.32;14.45;;;;;;;7.68;70.79;101147.94;1722186;83;21143;-76
2021/11/13 13:41:35;;;;;;;28.30;15.55;;;;;;;7.65;71.00;101157.23;1720851;83;21910;-76
2021/11/13 13:44:41;;;;;;;26.82;14.18;;;;;;;7.57;71.21;101152.95;1721113;83;21313;-76
2021/11/13 13:47:48;;;;;;;25.27;13.62;;;;;;;7.51;71.44;101156.73;1729035;80;21311;-76
2021/11/13 13:50:55;;;;;;;26.52;13.93;;;;;;;7.39;71.90;101154.62;1713864;82;21227;-76
2021/11/13 13:54:15;;;;;;;25.37;13.98;;;;;;;7.28;72.41;101154.18;1734067;82;21310;-76
2021/11/13 13:57:23;;;;;;;27.07;13.58;;;;;;;7.18;72.77;101161.42;1733669;82;21188;-77
2021/11/13 14:00:28;;;;;;;31.30;14.25;;;;;;;7.08;73.04;101159.14;1733714;82;21314;-77
2021/11/13 14:03:35;;;;;;;28.30;14.90;;;;;;;6.98;73.20;101160.95;1733894;81;21235;-77
2021/11/13 14:06:42;;;;;;;27.25;14.55;;;;;;;6.88;73.49;101168.53;1732719;82;21742;-76
2021/11/13 14:09:50;;;;;;;21.05;14.03;;;;;;;6.77;73.70;101167.21;1732496;82;21283;-76
2021/11/13 14:13:02;;;;;;;27.13;15.23;;;;;;;6.67;74.20;101171.71;1732693;82;21278;-76
2021/11/13 14:16:07;;;;;;;28.10;16.23;;;;;;;6.57;74.75;101177.56;1732523;82;21192;-75